Flight Track Log - Related Links

Times and Time Zones

All times are in EDT time to prevent confusion due to time zone crossing. See the EJA122 flight status page for this flight to view local times or setup timezone preferences in your user account.

Time Position Orientation Groundspeed Altitude Reporting Facility
EDT Latitude Longitude Course Direction KTS MPH feet Rate Location/Type
Tue 04:00:17 PM 37.3792 -121.6547 107° East 322 371 13,900  Level Oakland Center
Tue 04:01:18 PM 37.3453 -121.5242 108° East 333 383 16,300 2,164 Climbing Oakland Center
Tue 04:02:19 PM 37.3169 -121.4139 108° East 333 383 18,300 1,854 Climbing Oakland Center
Tue 04:03:21 PM 37.2881 -121.3053 108° East 330 380 20,100 1,415 Climbing Oakland Center
Tue 04:04:22 PM 37.2592 -121.1944 108° East 333 383 21,200 1,024 Climbing Oakland Center
Tue 04:05:24 PM 37.2278 -121.0778 109° East 350 403 22,200 1,024 Climbing Oakland Center
Tue 04:06:25 PM 37.1958 -120.9567 108° East 362 417 23,300 1,131 Climbing Oakland Center
Tue 04:07:26 PM 37.1631 -120.8350 109° East 368 423 24,500 1,122 Climbing Oakland Center
Tue 04:08:28 PM 37.1306 -120.7078 108° East 380 437 25,600 1,122 Climbing Oakland Center
Tue 04:09:29 PM 37.0886 -120.5586 109° East 380 437 26,800 1,024 Climbing Oakland Center
Tue 04:10:31 PM 37.0539 -120.4306 109° East 385 443 27,700 927 Climbing Oakland Center
Tue 04:11:32 PM 37.0186 -120.3017 109° East 391 450 28,700 639 Climbing Oakland Center
Tue 04:12:33 PM 36.9814 -120.1667 109° East 404 465 29,000 146 Climbing Oakland Center
Tue 04:13:35 PM 36.9456 -120.0378 109° East 427 491 29,000  Level Oakland Center
Tue 04:14:36 PM 36.9317 -119.8494 95° East 464 534 29,000 98 Level Oakland Center
Tue 04:15:37 PM 36.9756 -119.6958 70° East 472 543 29,200 439 Climbing Oakland Center
Tue 04:16:39 PM 37.0228 -119.5414 69° East 476 548 29,900 732 Climbing Oakland Center
Tue 04:17:40 PM 37.0689 -119.3903 69° East 467 537 30,700 780 Climbing Oakland Center
Tue 04:18:42 PM 37.1156 -119.2383 69° East 469 540 31,500 780 Climbing Oakland Center
Tue 04:19:43 PM 37.1619 -119.0869 69° East 465 535 32,300 738 Climbing Oakland Center
Tue 04:20:44 PM 37.2089 -118.9342 69° East 468 539 33,000 341 Climbing Oakland Center
Tue 04:21:46 PM 37.2550 -118.7775 70° East 477 549 33,000  Level Oakland Center
Tue 04:22:47 PM 37.3036 -118.6175 69° East 490 564 33,000  Level Oakland Center
Tue 04:23:48 PM 37.3583 -118.4275 70° East 503 579 33,000  Level Oakland Center
Tue 04:24:50 PM 37.3819 -118.2542 80° East 508 585 33,000  Level Oakland Center
Tue 04:25:51 PM 37.3911 -118.0764 86° East 511 588 33,000  Level Oakland Center
Tue 04:26:53 PM 37.4014 -117.9003 86° East 508 585 33,000  Level Oakland Center
Tue 04:27:54 PM 37.4083 -117.7219 87° East 511 588 33,000  Level Oakland Center
Tue 04:28:55 PM 37.4181 -117.5450 86° East 511 588 33,000  Level Oakland Center
Tue 04:29:57 PM 37.3978 -117.3364 97° East 508 585 33,000  Level Oakland Center
Tue 04:30:58 PM 37.3239 -117.2003 124° Southeast 482 555 33,000  Level Oakland Center
Tue 04:31:59 PM 37.2244 -117.1061 143° Southeast 456 525 33,000  Level Oakland Center
Tue 04:32:15 PM 37.2050 -117.0903 147° Southeast 452 520 33,000  Level Los Angeles Center
Tue 04:33:16 PM 37.1022 -117.0036 146° Southeast 447 514 33,000 -267 Level Los Angeles Center
Tue 04:34:30 PM 36.9981 -116.9156 146° Southeast 451 519 32,400 -920 Descending Los Angeles Center
Tue 04:35:33 PM 36.8550 -116.7944 146° Southeast 445 512 30,900 -1,270 Descending Los Angeles Center
Tue 04:36:47 PM 36.7617 -116.6908 138° Southeast 456 525 29,500 -1,588 Descending Los Angeles Center
Tue 04:37:49 PM 36.6611 -116.5486 131° Southeast 457 526 27,300 -1,984 Descending Los Angeles Center
Tue 04:38:51 PM 36.5781 -116.4319 132° Southeast 452 520 25,400 -1,935 Descending Los Angeles Center
Tue 04:39:53 PM 36.4986 -116.3194 131° Southeast 446 513 23,300 -2,323 Descending Los Angeles Center
Tue 04:40:55 PM 36.4014 -116.1828 131° Southeast 448 516 20,600 -2,602 Descending Los Angeles Center
Tue 04:41:16 PM 36.3719 -116.1450 134° Southeast 444 511 19,700 -2,323 Descending Los Angeles Center
Tue 04:41:57 PM 36.3225 -116.0725 130° Southeast 433 498 18,200 -1,914 Descending Los Angeles Center
Tue 04:43:12 PM 36.2347 -115.9519 132° Southeast 386 444 16,000 -1,161 Descending Los Angeles Center
Tue 04:44:01 PM 36.1919 -115.8706 123° Southeast 341 392 15,800 -455 Descending Los Angeles Center
Tue 04:44:18 PM 36.1814 -115.8414 114° Southeast 331 381 15,500 -1,065 Descending Los Angeles Center
Tue 04:45:03 PM 36.1550 -115.7572 111° Southeast 332 382 14,700 -1,034 Descending Los Angeles Center
Tue 04:46:14 PM 36.1133 -115.6319 112° Southeast 333 383 13,500 -1,000 Descending Los Angeles Center
Tue 04:47:15 PM 36.0808 -115.5308 112° Southeast 329 379 12,500 -898 Descending Los Angeles Center
Tue 04:48:21 PM 36.0481 -115.4297 112° Southeast 320 368 11,600 -891 Descending Los Angeles Center
Tue 04:49:23 PM 36.0275 -115.3342 105° East 302 348 10,600 -1,161 Descending Los Angeles Center
Tue 04:50:25 PM 36.0189 -115.2133 95° East 298 343 9,200 -1,065 Descending Los Angeles Center
Tue 04:51:27 PM 36.0128 -115.1256 95° East 270 311 8,400 -629 Descending Los Angeles Center
Tue 04:52:29 PM 36.0108 -115.0575 92° East 230 265 7,900 -1,160 Descending Los Angeles Center
Tue 04:53:26 PM 36.0783 -115.0397 12° North 225 259 6,100 -1,780 Descending Los Angeles Center
Tue 04:54:27 PM 36.1178 -115.0719 327° Northwest 183 211 4,400 -1,362 Descending Los Angeles Center
Tue 04:55:47 PM 36.1311 -115.1233 288° West 181 208 2,900 -972 Descending Los Angeles Center
Tue 04:56:49 PM 36.0883 -115.1583 213° Southwest 150 173 2,100 -774 Descending Los Angeles Center
Tue 04:58:00 PM 36.0801 -115.1523 95° East  Level Estimated

Login

Don't have an account? Register now (free) for customized features, flight alerts, and more!